Tiempo atmosférico en la estación meteorológica de Abia De Obispalia, Cuenca (1020 m.)



Fecha
DESCASC
Temp. máxima en grados centígrados (hora)
DESCASC
Temp. mínima en grados centígrados (hora)
DESCASC
Temp. media en grados centígrados
DESCASC
Racha de viento máxima en m/sg (hora)
DESCASC
Velocidad máxima media en intervalos de 10 minutos(hora)
DESCASC
Precipitaciones diarias en mm
DESCASC
Precipitaciones de 00:00 a 06:00 en mm
DESCASC
Precipitaciones de 06:00 a 12:00 en mm
DESCASC
Precipitaciones de 12:00 a 18:00 en mm
DESCASC
Precipitaciones de 18:00 a 24:00 en mm
DESCASC
23-05-2018 24.4 (18:10) 10.5 (06:50) 17.4 10.28 (19:50) 6.39 (19:50) 0 0 0 0 0
22-05-2018 23.6 (18:20) 7.6 (06:40) 15.6 6.11 (15:10) 3.61 (19:20) 0.2 0 0.2 0 0
21-05-2018 21.4 (14:10) 8.4 (06:10) 14.9 10.56 (17:20) 5.83 (18:10) 10 0 0 8 2
20-05-2018 21 (16:30) 9.6 (00:00) 15.3 7.22 (14:50) 3.89 (17:00) 4 2.2 1.8 0 0
19-05-2018 22.4 (14:20) 8.8 (00:00) 15.6 10 (15:20) 3.89 (15:30) 2.2 0 0 2.2 0
18-05-2018 20.5 (17:10) 9.5 (00:00) 15 10.56 (18:00) 6.11 (18:00) 1.4 0.4 0 1 0
17-05-2018 23 (17:00) 7.8 (00:00) 15.4 8.61 (23:20) 6.11 (23:20) 0 0 0 0 0
16-05-2018 22.6 (17:20) 6.8 (00:00) 14.7 9.17 (00:10) 5 (23:00) 0 0 0 0 0
15-05-2018 23.4 (18:40) 3 (00:00) 13.2 8.89 (16:20) 4.17 (16:40) 0 0 0 0 0
14-05-2018 18.2 (18:40) 3.9 (00:00) 11.1 10.56 (15:20) 5 (18:50) 0 0 0 0 0
13-05-2018 15.6 (16:10) 2.8 (00:00) 9.2 11.94 (15:10) 6.39 (09:40) 0 0 0 0 0
12-05-2018 19.2 (15:00) 8.9 (00:00) 14.1 10.83 (21:40) 6.11 (20:40) 0 0 0 0 0
11-05-2018 24.2 (17:50) 9.5 (07:10) 16.9 6.67 (17:30) 4.17 (00:10) 0 0 0 0 0
10-05-2018 23.5 (18:30) 11.3 (00:00) 17.4 11.11 (21:30) 7.78 (21:20) 0 0 0 0 0
09-05-2018 24.1 (15:30) 7.6 (00:00) 15.9 9.17 (15:40) 5 (15:30) 0 0 0 0 0
08-05-2018 23.8 (15:00) 7.6 (00:00) 15.7 8.89 (15:50) 5 (15:50) 0 0 0 0 0
07-05-2018 22.2 (16:40) 5.9 (00:00) 14.1 7.5 (18:40) 4.72 (18:50) 0 0 0 0 0
06-05-2018 20.5 (16:10) 7.5 (00:00) 14 10 (19:30) 7.5 (19:50) 0 0 0 0 0
05-05-2018 21 (13:20) 6.8 (00:00) 13.9 10.28 (16:50) 6.39 (17:30) 2.4 0 0 0 2.4
04-05-2018 20.8 (17:50) 2.2 (00:00) 11.5 6.11 (21:00) 3.61 (21:00) 0 0 0 0 0
03-05-2018 17.9 (15:40) 1.9 (00:00) 9.9 10 (18:20) 5.83 (18:30) 0 0 0 0 0
02-05-2018 16.1 (16:00) 0.6 (00:00) 8.4 11.67 (16:10) 6.11 (12:30) 0 0 0 0 0
01-05-2018 14.5 (17:40) -1 (06:30) 6.8 8.61 (14:20) 4.44 (13:50) 0 0 0 0 0
30-04-2018 10.1 (16:00) 0.3 (00:00) 5.2 8.33 (19:40) 4.72 (17:00) 2.6 0 0 0 2.6
29-04-2018 10.5 (16:40) 3 (00:00) 6.8 15.83 (18:20) 7.22 (13:30) 5.4 0.8 3.2 0.4 1
28-04-2018 16.9 (15:50) 7.5 (00:00) 12.2 11.39 (18:00) 5.83 (17:20) 0 0 0 0 0

Gráficas

Temp. máximas Temp. mínimas Temp. medias Precipitaciones Rachas de viento máximas Velocidades máximas media en intervalos de 10 minutos

Datos horarios

Fecha y hora oficial Temperatura (ºC) Velocidad del viento (km/h) Dirección del viento Racha (km/h) Dirección de racha Precipitación (mm) Presión (hPa) Tendencia (hPa) Humedad (%)
2018-05-27 23:00:00 -- -- -- -- -- -- -- -- --
2018-05-27 22:00:00 -- -- -- -- -- -- -- -- --
2018-05-27 21:00:00 -- -- -- -- -- -- -- -- --
2018-05-27 20:00:00 11.7 4 Noroeste 19 Sudoeste 4.8 -- -- 97
2018-05-27 19:00:00 11.9 6 Sudoeste 30 Sur 5 -- -- 95
2018-05-27 18:00:00 12.6 12 Sur 35 Sudoeste 0.8 -- -- 91
2018-05-27 17:00:00 18.1 3 Sur 18 Noroeste 0 -- -- 59
2018-05-27 16:00:00 20.6 9 Noroeste 22 Noroeste 0 -- -- 51
2018-05-27 15:00:00 22.3 16 Noroeste 35 Noroeste 0.2 -- -- 49
2018-05-27 14:00:00 21 10 Noroeste 26 Oeste 0.4 -- -- 60
2018-05-27 13:00:00 22 5 Oeste 14 Noroeste 0 -- -- 55
2018-05-27 12:00:00 20.4 5 Noroeste 11 Norte 0 -- -- 62
2018-05-27 11:00:00 19.1 5 Noroeste 14 Noroeste 0 -- -- 69
2018-05-27 10:00:00 15.9 6 Oeste 9 Noroeste 0 -- -- 81
2018-05-27 09:00:00 13.9 4 Noroeste 8 Noroeste 0 -- -- 95
2018-05-27 08:00:00 11.6 0 Calma 2 Sur 0 -- -- 99
2018-05-27 07:00:00 10.2 0 Calma 2 Sudeste 0 -- -- 96
2018-05-27 06:00:00 11.1 0 Calma 6 Sudeste 0 -- -- 94
2018-05-27 05:00:00 12.2 3 Sudeste 13 Sudeste 0 -- -- 91
2018-05-27 04:00:00 13.1 4 Sur 8 Sur 0 -- -- 93
2018-05-27 03:00:00 13.3 2 Norte 9 Sudeste 0 -- -- 92
2018-05-27 02:00:00 13.3 4 Sur 15 Sur 0.8 -- -- 88
2018-05-27 01:00:00 14 10 Sur 19 Sudeste 0 -- -- 80
2018-05-27 00:00:00 15.5 17 Sudeste 23 Sur 0 -- -- 81
2018-05-26 23:00:00 15.2 0 Calma 5 Sudoeste 0 -- -- 65
2018-05-26 22:00:00 14.4 0 Calma 3 Sur 0 -- -- 72
2018-05-26 21:00:00 16 0 Calma 10 Sur 0 -- -- 63
2018-05-26 20:00:00 19.4 7 Sur 14 Sudeste 0 -- -- 49
2018-05-26 19:00:00 20.4 7 Sur 15 Sur 0 -- -- 45
2018-05-26 18:00:00 20.7 3 Sur 17 Sudeste 0 -- -- 42
2018-05-26 17:00:00 20.9 5 Sur 20 Oeste 0 -- -- 43
2018-05-26 16:00:00 21.6 9 Sudoeste 20 Sudoeste 0 -- -- 42
2018-05-26 15:00:00 20.3 7 Noroeste 26 Noroeste 0 -- -- 47
2018-05-26 14:00:00 20 7 Oeste 17 Oeste 0 -- -- 49
2018-05-26 13:00:00 18.8 6 Sudoeste 17 Sur 0 -- -- 50
2018-05-26 12:00:00 19 6 Sudoeste 17 Sudoeste 0 -- -- 49
2018-05-26 11:00:00 17.3 5 Oeste 12 Oeste 0 -- -- 53
2018-05-26 10:00:00 15.2 3 Norte 7 Norte 0 -- -- 66
2018-05-26 09:00:00 13.1 0 Calma 4 Noroeste 0 -- -- 82
2018-05-26 08:00:00 11.4 2 Sudeste 8 Sur 0 -- -- 91
2018-05-26 07:00:00 11.3 4 Sudoeste 10 Sudoeste 0 -- -- 86
2018-05-26 06:00:00 11 0 Calma 4 Noroeste 0 -- -- 85
2018-05-26 05:00:00 11.1 0 Calma 4 Oeste 0 -- -- 86
2018-05-26 04:00:00 11.6 0 Calma 4 Sur 0 -- -- 85
2018-05-26 03:00:00 12 2 Sur 4 Este 0 -- -- 85
2018-05-26 02:00:00 12.4 0 Calma 9 Oeste 0 -- -- 82
2018-05-26 01:00:00 13.1 7 Noroeste 10 Noroeste 0 -- -- 78
2018-05-26 00:00:00 13.9 3 Oeste 13 Oeste 0 -- -- 75
2018-05-25 23:00:00 14.8 5 Sur 9 Sur 0 -- -- 69
2018-05-25 22:00:00 14.8 4 Sudoeste 6 Sudoeste 0 -- -- 68
2018-05-25 21:00:00 17.1 3 Oeste 11 Noroeste 0 -- -- 58
2018-05-25 20:00:00 17.9 5 Noroeste 14 Noroeste 0 -- -- 61
2018-05-25 19:00:00 18 5 Noroeste 17 Oeste 0 -- -- 63
2018-05-25 18:00:00 19 4 Sudoeste 17 Sur 0 -- -- 59
2018-05-25 17:00:00 17.8 8 Sur 22 Sudeste 0 -- -- 67
2018-05-25 16:00:00 16.4 8 Sur 18 Sur 0.2 -- -- 74
2018-05-25 15:00:00 15.1 9 Sur 17 Sudoeste 0 -- -- 72
2018-05-25 14:00:00 15.5 7 Sudoeste 19 Sudoeste 0 -- -- 66
2018-05-25 13:00:00 15.4 11 Sur 23 Sur 0 -- -- 64
2018-05-25 12:00:00 14.6 15 Sur 31 Sudeste 0 -- -- 65
2018-05-25 11:00:00 15.2 14 Sudeste 22 Sudeste 0 -- -- 60
2018-05-25 10:00:00 14.8 13 Sudeste 26 Sudeste 0 -- -- 57
2018-05-25 09:00:00 12.5 3 Sudeste 11 Sudoeste 0 -- -- 65
2018-05-25 08:00:00 12.7 6 Sudoeste 13 Oeste 0 -- -- 60
2018-05-25 07:00:00 12.6 6 Sudeste 14 Este 0 -- -- 58
2018-05-25 06:00:00 12.3 2 Este 22 Este 0 -- -- 56
2018-05-25 05:00:00 12.7 7 Sudeste 21 Este 0 -- -- 55
2018-05-25 04:00:00 12.7 10 Sudeste 26 Sudeste 0 -- -- 58
2018-05-25 03:00:00 13.3 17 Sudeste 33 Sudeste 0 -- -- 55
2018-05-25 02:00:00 13.8 17 Sudeste 32 Sudeste 0 -- -- 56
2018-05-25 01:00:00 14.2 17 Sudeste 33 Sudeste 0 -- -- 53
2018-05-25 00:00:00 14.8 15 Sudeste 35 Sudeste 0 -- -- 48
2018-05-24 23:00:00 15.8 20 Sudeste 34 Sudeste 0 -- -- 44
2018-05-24 22:00:00 16.8 19 Sudeste 35 Sudeste 0 -- -- 42
2018-05-24 21:00:00 18.6 19 Sudeste 39 Sudeste 0 -- -- 47
2018-05-24 20:00:00 21.4 27 Sudeste 50 Sudeste 0 -- -- 42
2018-05-24 19:00:00 23.1 27 Sudeste 42 Sudeste 0 -- -- 40
2018-05-24 18:00:00 23.5 20 Sudeste 40 Sudeste 0 -- -- 38
2018-05-24 17:00:00 24.3 24 Sudeste 40 Sudeste 0 -- -- 37
2018-05-24 16:00:00 25 20 Sudeste 34 Sudeste 0 -- -- 35
2018-05-24 15:00:00 23.9 15 Sudeste 26 Este 0 -- -- 37
2018-05-24 14:00:00 19.4 9 Sudeste 33 Sudeste 0 -- -- 45
2018-05-24 13:00:00 19.4 19 Sudeste 37 Sudeste 0 -- -- 44
2018-05-24 12:00:00 21.4 22 Sudeste 37 Sudeste 0 -- -- 40
2018-05-24 11:00:00 20.2 17 Sudeste 37 Sudeste 0 -- -- 39
2018-05-24 10:00:00 18.5 18 Sudeste 35 Sudeste 0 -- -- 47
2018-05-24 09:00:00 16.7 12 Sudeste 24 Sudeste 0 -- -- 51
2018-05-24 08:00:00 13.5 4 Sudeste 18 Sudeste 0 -- -- 62
2018-05-24 07:00:00 12.9 15 Sudeste 26 Sudeste 0 -- -- 66
2018-05-24 06:00:00 13.2 15 Sudeste 25 Sudeste 0 -- -- 65
2018-05-24 05:00:00 13.8 13 Sudeste 24 Sudeste 0 -- -- 71
2018-05-24 04:00:00 13.9 5 Sudeste 13 Sudeste 0 -- -- 73
2018-05-24 03:00:00 14.7 8 Sur 22 Sur 0 -- -- 69
2018-05-24 02:00:00 14.9 14 Sur 21 Sur 0 -- -- 66
2018-05-24 01:00:00 15.2 12 Sur 21 Sudeste 0 -- -- 66
2018-05-24 00:00:00 16.4 13 Sur 18 Sur 0 -- -- 62
2018-05-23 23:00:00 16.7 8 Sur 10 Sur 0 -- -- 59
2018-05-23 22:00:00 18 5 Sudoeste 12 Sur 0 -- -- 54
2018-05-23 21:00:00 19.1 4 Sur 21 Sur 0 -- -- 49
2018-05-23 20:00:00 19 19 Sur 37 Sur 0 -- -- 49
2018-05-23 19:00:00 22.7 17 Sur 33 Sur 0 -- -- 36
2018-05-23 18:00:00 24 20 Sur 32 Sudeste 0 -- -- 34
2018-05-23 17:00:00 23.6 15 Sur 29 Sur 0 -- -- 35
2018-05-23 16:00:00 23.8 18 Sur 29 Sur 0 -- -- 34
2018-05-23 15:00:00 23.5 18 Sur 30 Sur 0 -- -- 38
2018-05-23 14:00:00 22.8 16 Sur 28 Sur 0 -- -- 47
2018-05-23 13:00:00 21.8 16 Sur 26 Sudeste 0 -- -- 47
2018-05-23 12:00:00 20.7 12 Sudeste 20 Sudeste 0 -- -- 52
2018-05-23 11:00:00 19.9 12 Sudeste 22 Sudeste 0 -- -- 54
2018-05-23 10:00:00 18.3 10 Sudeste 18 Sur 0 -- -- 57
2018-05-23 09:00:00 16.8 3 Nordeste 14 Sudeste 0 -- -- 63
2018-05-23 08:00:00 12.4 0 Calma 7 Este 0 -- -- 84
2018-05-23 07:00:00 10.5 0 Calma 5 Sudeste 0 -- -- 89
2018-05-23 06:00:00 11.1 2 Este 5 Nordeste 0 -- -- 88
2018-05-23 05:00:00 11.3 0 Calma 5 Sur 0 -- -- 87
2018-05-23 04:00:00 12.1 2 Nordeste 6 Sudeste 0 -- -- 85
2018-05-23 03:00:00 13 6 Sur 16 Sur 0 -- -- 82
2018-05-23 02:00:00 13.9 13 Sudeste 18 Sudeste 0 -- -- 79
2018-05-23 01:00:00 13.9 13 Sur 23 Sur 0 -- -- 80
2018-05-23 00:00:00 15.2 11 Sudeste 16 Sudeste 0 -- -- 73
2018-05-22 23:00:00 15.8 3 Sudeste 12 Sudeste 0 -- -- 71
2018-05-22 22:00:00 16.3 5 Sudeste 12 Este 0 -- -- 70
2018-05-22 21:00:00 17.3 8 Sudeste 16 Este 0 -- -- 63
2018-05-22 20:00:00 19.1 3 Norte 21 Norte 0 -- -- 59
2018-05-22 19:00:00 22.3 3 Sudoeste 13 Noroeste 0 -- -- 41
2018-05-22 18:00:00 23.3 3 Noroeste 18 Noroeste 0 -- -- 39
2018-05-22 17:00:00 22.1 7 Noroeste 17 Noroeste 0 -- -- 43
2018-05-22 16:00:00 19.2 9 Noroeste 22 Oeste 0 -- -- 55
2018-05-22 15:00:00 20.3 11 Noroeste 19 Noroeste 0 -- -- 56
2018-05-22 14:00:00 19.7 6 Noroeste 15 Noroeste 0 -- -- 57
2018-05-22 13:00:00 19.9 4 Noroeste 14 Noroeste 0 -- -- 54
2018-05-22 12:00:00 18.8 4 Norte 11 Noroeste 0.2 -- -- 57
2018-05-22 11:00:00 16.7 4 Noroeste 11 Noroeste 0 -- -- 64
2018-05-22 10:00:00 14.2 5 Oeste 12 Sudoeste 0 -- -- 81
2018-05-22 09:00:00 12.8 3 Norte 5 Noroeste 0 -- -- 87
2018-05-22 08:00:00 8.9 3 Sur 4 Noroeste 0 -- -- 100
2018-05-22 07:00:00 7.6 0 Calma 3 Sudoeste 0 -- -- 97
2018-05-22 06:00:00 8.1 0 Calma 3 Sudoeste 0 -- -- 96
2018-05-22 05:00:00 9.3 0 Calma 2 Sur 0 -- -- 96
2018-05-22 04:00:00 9.3 0 Calma 5 Sudoeste 0 -- -- 96
2018-05-22 03:00:00 9.3 3 Sur 7 Sur 0 -- -- 96
2018-05-22 02:00:00 9.6 2 Sur 9 Sur 0 -- -- 92
2018-05-22 01:00:00 10.5 5 Sur 8 Sur 0 -- -- 89
2018-05-22 00:00:00 10.7 9 Sur 13 Sur 0 -- -- 91
2018-05-21 23:00:00 11.8 0 Calma 6 Sur 0 -- -- 89
2018-05-21 22:00:00 11.8 2 Sur 8 Sur 0 -- -- 86
2018-05-21 21:00:00 12.1 5 Sudeste 18 Sudeste 0 -- -- 81
2018-05-21 20:00:00 12.4 12 Sudeste 19 Sudeste 0 -- -- 83
2018-05-21 19:00:00 11.3 17 Sudeste 34 Sur 2 -- -- 90
2018-05-21 18:00:00 12.7 21 Sudeste 38 Sur 8 -- -- 80
2018-05-21 17:00:00 17.3 9 Norte 23 Noroeste 0 -- -- 55
2018-05-21 16:00:00 19.3 6 Este 12 Este 0 -- -- 46
2018-05-21 15:00:00 18.2 9 Sudeste 22 Sur 0 -- -- 54
2018-05-21 14:00:00 21 12 Sudoeste 23 Sudoeste 0 -- -- 48
2018-05-21 13:00:00 19.5 7 Oeste 17 Noroeste 0 -- -- 49
2018-05-21 12:00:00 18.2 5 Sudoeste 13 Oeste 0 -- -- 55
2018-05-21 11:00:00 17 8 Sudoeste 14 Oeste 0 -- -- 59
2018-05-21 10:00:00 15.2 6 Sur 13 Sudoeste 0 -- -- 67
2018-05-21 09:00:00 13.8 4 Sudeste 9 Sudeste 0 -- -- 73
2018-05-21 08:00:00 9.1 3 Noroeste 13 Sur 0 -- -- 90
2018-05-21 07:00:00 8.7 8 Sur 12 Sur 0 -- -- 91
2018-05-21 06:00:00 8.5 7 Sudeste 12 Sudeste 0 -- -- 91
2018-05-21 05:00:00 9.2 6 Sudeste 17 Sudeste 0 -- -- 88
2018-05-21 04:00:00 10 12 Sudeste 22 Sudeste 0 -- -- 85
2018-05-21 03:00:00 10.2 13 Sudeste 19 Sudeste 0 -- -- 82
2018-05-21 02:00:00 10.8 8 Sudeste 30 Sudeste 0 -- -- 77
2018-05-21 01:00:00 12.6 20 Sudeste 30 Sudeste 0 -- -- 71
2018-05-21 00:00:00 13 9 Sudeste 17 Sudeste 0 -- -- 69
2018-05-20 23:00:00 13.7 8 Sudeste 13 Este 0 -- -- 69
2018-05-20 22:00:00 13.7 0 Calma 4 Nordeste 0 -- -- 75
2018-05-20 21:00:00 15.3 3 Nordeste 5 Nordeste 0 -- -- 69
2018-05-20 20:00:00 16.6 0 Calma 10 Noroeste 0 -- -- 61
2018-05-20 19:00:00 17.6 0 Calma 9 Este 0 -- -- 49
2018-05-20 18:00:00 17.5 5 Sudeste 20 Este 0 -- -- 54
2018-05-20 17:00:00 18.8 14 Sudeste 22 Sudeste 0 -- -- 50
2018-05-20 16:00:00 20.8 10 Sudoeste 24 Sudoeste 0 -- -- 38
2018-05-20 15:00:00 19.4 12 Sur 26 Sudeste 0 -- -- 43
2018-05-20 14:00:00 17.9 10 Sudeste 19 Sudeste 0 -- -- 57
2018-05-20 13:00:00 16.9 5 Sur 18 Sudeste 0 -- -- 64
2018-05-20 12:00:00 15 3 Noroeste 11 Sudeste 0 -- -- 64
2018-05-20 11:00:00 14.9 3 Nordeste 12 Sudeste 0 -- -- 66
2018-05-20 10:00:00 12.4 3 Nordeste 10 Sudeste 0 -- -- 87
2018-05-20 09:00:00 10.3 4 Este 9 Este 0 -- -- 93
2018-05-20 08:00:00 9.8 0 Calma 4 Este 0.6 -- -- 95
2018-05-20 07:00:00 9.6 3 Sudeste 10 Nordeste 1.2 -- -- 94
2018-05-20 06:00:00 10.1 5 Norte 15 Norte 0.8 -- -- 94
2018-05-20 05:00:00 10.9 5 Norte 9 Norte 1.2 -- -- 94
2018-05-20 04:00:00 11.1 4 Norte 15 Sudeste 0 -- -- 89
2018-05-20 03:00:00 11.7 2 Este 7 Noroeste 0 -- -- 87
2018-05-20 02:00:00 11.9 2 Sudeste 16 Sudeste 0.2 -- -- 85
2018-05-20 01:00:00 12.6 10 Sur 16 Sudeste 0 -- -- 81
2018-05-20 00:00:00 13.1 5 Sudeste 16 Sudeste 0 -- -- 76
2018-05-19 23:00:00 13.6 6 Sudeste 21 Sudeste 0 -- -- 71
2018-05-19 22:00:00 14.5 9 Sudeste 19 Sudeste 0 -- -- 66
2018-05-19 21:00:00 16.5 8 Sudeste 16 Sudeste 0 -- -- 60
2018-05-19 20:00:00 19.8 6 Nordeste 17 Nordeste 0 -- -- 50
2018-05-19 19:00:00 20.8 3 Oeste 8 Noroeste 0 -- -- 42
2018-05-19 18:00:00 18.6 3 Norte 9 Noroeste 0 -- -- 55
2018-05-19 17:00:00 16.6 5 Oeste 14 Noroeste 0.2 -- -- 72
2018-05-19 16:00:00 14.3 0 Calma 36 Este 2 -- -- 74
2018-05-19 15:00:00 20 4 Nordeste 21 Sudeste 0 -- -- 43
2018-05-19 14:00:00 21 7 Sudoeste 20 Este 0 -- -- 38
2018-05-19 13:00:00 21 6 Sudeste 23 Sudeste 0 -- -- 39
2018-05-19 12:00:00 19.6 11 Sudeste 20 Sudeste 0 -- -- 44
2018-05-19 11:00:00 18.7 8 Sudeste 15 Este 0 -- -- 54
2018-05-19 10:00:00 16.8 7 Norte 12 Norte 0 -- -- 62
2018-05-19 09:00:00 13.7 2 Norte 6 Norte 0 -- -- 75
2018-05-19 08:00:00 10 0 Calma 4 Norte 0 -- -- 91
2018-05-19 07:00:00 9.1 0 Calma 4 Noroeste 0 -- -- 92
2018-05-19 06:00:00 8.8 0 Calma 5 Noroeste 0 -- -- 90
2018-05-19 05:00:00 9.5 0 Calma 5 Sur 0 -- -- 89
2018-05-19 04:00:00 9.1 0 Calma 7 Este 0 -- -- 89
2018-05-19 03:00:00 10 4 Sudeste 7 Sudeste 0 -- -- 84
2018-05-19 02:00:00 11.6 3 Sudeste 10 Sudeste 0 -- -- 78
2018-05-19 01:00:00 12.6 5 Sudeste 12 Sudeste 0 -- -- 75
2018-05-19 00:00:00 12.8 0 Calma 6 Sur 0 -- -- 74
2018-05-18 23:00:00 13 2 Sudeste 6 Este 0 -- -- 73
2018-05-18 22:00:00 13.1 3 Sur 10 Sudeste 0 -- -- 74
2018-05-18 21:00:00 14.6 4 Nordeste 16 Noroeste 0 -- -- 67
2018-05-18 20:00:00 16.3 4 Norte 17 Noroeste 0 -- -- 57
2018-05-18 19:00:00 16.4 9 Sudeste 34 Este 0 -- -- 56
2018-05-18 18:00:00 16.8 22 Este 38 Este 0 -- -- 57
2018-05-18 17:00:00 19.8 4 Sudeste 14 Sudeste 0 -- -- 39
2018-05-18 16:00:00 18.1 7 Sudeste 15 Sudeste 0 -- -- 47
2018-05-18 15:00:00 17.5 6 Sudeste 23 Sudeste 1 -- -- 53
2018-05-18 14:00:00 17.7 11 Sudeste 26 Este 0 -- -- 60
2018-05-18 13:00:00 17.9 5 Este 22 Sudeste 0 -- -- 53
2018-05-18 12:00:00 17.3 6 Este 16 Sudeste 0 -- -- 55
2018-05-18 11:00:00 13.2 7 Este 20 Sudeste 0 -- -- 68
2018-05-18 10:00:00 12.4 9 Sudeste 20 Sudeste 0 -- -- 67
2018-05-18 09:00:00 10.9 6 Sudeste 10 Sudeste 0 -- -- 74
2018-05-18 08:00:00 9.9 8 Sudeste 15 Sudeste 0 -- -- 75
2018-05-18 07:00:00 9.5 9 Sudeste 19 Sudeste 0 -- -- 78
2018-05-18 06:00:00 10 10 Sudeste 18 Sur 0 -- -- 78
2018-05-18 05:00:00 10.7 10 Sudeste 25 Sudeste 0 -- -- 80
2018-05-18 04:00:00 10.8 17 Sudeste 24 Sudeste 0.4 -- -- 84
2018-05-18 03:00:00 12.2 7 Sudeste 14 Sudeste 0 -- -- 67
2018-05-18 02:00:00 12.7 8 Sudeste 23 Sudeste 0 -- -- 62
2018-05-18 01:00:00 12.8 12 Sudeste 21 Sudeste 0 -- -- 64
2018-05-18 00:00:00 13.3 16 Sudeste 31 Sudeste 0 -- -- 69
2018-05-17 23:00:00 14.4 20 Sudeste 30 Sudeste 0 -- -- 62
2018-05-17 22:00:00 16.2 9 Sudeste 15 Este 0 -- -- 49
2018-05-17 21:00:00 17.7 9 Este 20 Este 0 -- -- 44
2018-05-17 20:00:00 20.4 3 Norte 7 Noroeste 0 -- -- 39
2018-05-17 19:00:00 18.9 4 Norte 15 Norte 0 -- -- 44
2018-05-17 18:00:00 19.2 12 Sudeste 30 Sudeste 0 -- -- 36
2018-05-17 17:00:00 23 14 Sudoeste 24 Sur 0 -- -- 30
2018-05-17 16:00:00 21.6 7 Sur 23 Sudeste 0 -- -- 33
2018-05-17 15:00:00 20.3 13 Sur 25 Sur 0 -- -- 34
2018-05-17 14:00:00 21.2 9 Sudoeste 24 Sur 0 -- -- 34
2018-05-17 13:00:00 20.2 13 Sur 24 Sur 0 -- -- 35
2018-05-17 12:00:00 19.7 14 Sudeste 23 Sudeste 0 -- -- 38
2018-05-17 11:00:00 18.3 10 Sur 19 Sur 0 -- -- 41
2018-05-17 10:00:00 16.7 6 Este 15 Este 0 -- -- 46
2018-05-17 09:00:00 13.7 9 Sudeste 15 Sudeste 0 -- -- 53
2018-05-17 08:00:00 9.8 3 Nordeste 12 Sudeste 0 -- -- 65
2018-05-17 07:00:00 7.9 5 Sudeste 11 Sudeste 0 -- -- 68
2018-05-17 06:00:00 9.4 7 Sudeste 15 Sudeste 0 -- -- 59
2018-05-17 05:00:00 10.8 7 Sudeste 14 Sudeste 0 -- -- 54
2018-05-17 04:00:00 10.5 4 Sudeste 21 Sudeste 0 -- -- 55
2018-05-17 03:00:00 11.5 13 Sudeste 20 Sudeste 0 -- -- 52
2018-05-17 02:00:00 12.4 8 Sudeste 17 Sudeste 0 -- -- 47
2018-05-17 01:00:00 13.4 12 Sudeste 24 Sudeste 0 -- -- 44
2018-05-17 00:00:00 13.9 16 Sudeste 26 Sudeste 0 -- -- 47
2018-05-16 23:00:00 14.2 18 Sudeste 26 Sudeste 0 -- -- 45
2018-05-16 22:00:00 15.6 14 Sudeste 24 Sudeste 0 -- -- 42
2018-05-16 21:00:00 18.1 11 Sur 20 Sudeste 0 -- -- 38
2018-05-16 20:00:00 19.4 6 Sudeste 20 Sudeste 0 -- -- 38
2018-05-16 19:00:00 20.8 7 Sur 24 Sudeste 0 -- -- 34
2018-05-16 18:00:00 21 10 Sur 17 Sur 0 -- -- 36
2018-05-16 17:00:00 22.3 7 Sur 13 Sudoeste 0 -- -- 34
2018-05-16 16:00:00 20.1 3 Nordeste 16 Sudeste 0 -- -- 37
2018-05-16 15:00:00 19.8 5 Sur 27 Sur 0 -- -- 39
2018-05-16 14:00:00 21.8 15 Sur 25 Sudeste 0 -- -- 34
2018-05-16 13:00:00 19.8 8 Sudeste 21 Sudeste 0 -- -- 38
2018-05-16 12:00:00 20 6 Este 17 Este 0 -- -- 41
2018-05-16 11:00:00 19 6 Este 15 Este 0 -- -- 43
2018-05-16 10:00:00 17 4 Este 11 Este 0 -- -- 49
2018-05-16 09:00:00 13.7 4 Nordeste 10 Nordeste 0 -- -- 60
2018-05-16 08:00:00 8.7 0 Calma 7 Sudeste 0 -- -- 77
2018-05-16 07:00:00 6.9 3 Sudeste 5 Sudeste 0 -- -- 78
2018-05-16 06:00:00 7.2 0 Calma 3 Sudoeste 0 -- -- 81
2018-05-16 05:00:00 9.6 0 Calma 16 Sudeste 0 -- -- 72
2018-05-16 04:00:00 10.6 10 Sudeste 19 Sudeste 0 -- -- 68
2018-05-16 03:00:00 11.1 10 Sudeste 19 Sudeste 0 -- -- 65
2018-05-16 02:00:00 11.5 9 Sudeste 18 Sudeste 0 -- -- 63
2018-05-16 01:00:00 12.6 9 Sudeste 33 Este 0 -- -- 59
2018-05-16 00:00:00 14.1 13 Sudeste 23 Nordeste 0 -- -- 53
2018-05-15 23:00:00 15.4 9 Nordeste 20 Nordeste 0 -- -- 48
2018-05-15 22:00:00 15.6 5 Norte 23 Nordeste 0 -- -- 47
2018-05-15 21:00:00 18.4 12 Norte 21 Norte 0 -- -- 40
2018-05-15 20:00:00 21.3 9 Norte 26 Noroeste 0 -- -- 33
2018-05-15 19:00:00 23.3 10 Norte 26 Norte 0 -- -- 31
2018-05-15 18:00:00 22.8 11 Norte 30 Noroeste 0 -- -- 31
2018-05-15 17:00:00 22.2 12 Norte 32 Noroeste 0 -- -- 34
2018-05-15 16:00:00 21.6 8 Norte 23 Noroeste 0 -- -- 34
2018-05-15 15:00:00 20 7 Noroeste 25 Norte 0 -- -- 36
2018-05-15 14:00:00 19 8 Noroeste 24 Noroeste 0 -- -- 38
2018-05-15 13:00:00 17.8 11 Norte 21 Norte 0 -- -- 41
2018-05-15 12:00:00 15.9 9 Nordeste 26 Norte 0 -- -- 44
2018-05-15 11:00:00 13.6 12 Norte 22 Norte 0 -- -- 48
2018-05-15 10:00:00 11.4 10 Norte 17 Norte 0 -- -- 53
2018-05-15 09:00:00 8.6 7 Norte 14 Norte 0 -- -- 59
2018-05-15 08:00:00 4.2 4 Norte 10 Norte 0 -- -- 75
2018-05-15 07:00:00 3.1 5 Norte 9 Norte 0 -- -- 78
2018-05-15 06:00:00 3.1 3 Norte 5 Norte 0 -- -- 82
2018-05-15 05:00:00 4.3 3 Norte 7 Nordeste 0 -- -- 76
2018-05-15 04:00:00 4.9 3 Nordeste 10 Norte 0 -- -- 72
2018-05-15 03:00:00 5.9 6 Norte 11 Norte 0 -- -- 68
2018-05-15 02:00:00 6.9 3 Norte 16 Nordeste 0 -- -- 63
2018-05-15 01:00:00 7.4 4 Norte 9 Norte 0 -- -- 62
2018-05-15 00:00:00 7.8 0 Calma 5 Norte 0 -- -- 59
2018-05-14 23:00:00 9 0 Calma 12 Noroeste 0 -- -- 56
2018-05-14 22:00:00 11.6 7 Noroeste 13 Noroeste 0 -- -- 48
2018-05-14 21:00:00 13.5 6 Norte 20 Norte 0 -- -- 44
2018-05-14 20:00:00 16.3 14 Norte 28 Norte 0 -- -- 37
2018-05-14 19:00:00 16.5 12 Norte 35 Norte 0 -- -- 36
2018-05-14 18:00:00 17.7 14 Norte 32 Noroeste 0 -- -- 37
2018-05-14 17:00:00 14.9 14 Norte 31 Noroeste 0 -- -- 45
2018-05-14 16:00:00 14.9 13 Norte 38 Norte 0 -- -- 43
2018-05-14 15:00:00 15.9 17 Noroeste 35 Noroeste 0 -- -- 40
2018-05-14 14:00:00 15.8 13 Norte 32 Norte 0 -- -- 42
2018-05-14 13:00:00 15.5 15 Norte 31 Noroeste 0 -- -- 44
2018-05-14 12:00:00 14.2 15 Norte 32 Norte 0 -- -- 46
2018-05-14 11:00:00 13 13 Norte 27 Norte 0 -- -- 51
2018-05-14 10:00:00 10.8 12 Norte 22 Norte 0 -- -- 58
2018-05-14 09:00:00 7.8 9 Norte 24 Nordeste 0 -- -- 68
2018-05-14 08:00:00 7 9 Norte 18 Norte 0 -- -- 69
2018-05-14 07:00:00 5.4 7 Norte 14 Norte 0 -- -- 75
2018-05-14 06:00:00 4.4 2 Norte 8 Noroeste 0 -- -- 72
2018-05-14 05:00:00 5.1 0 Calma 14 Noroeste 0 -- -- 67
2018-05-14 04:00:00 7.4 7 Noroeste 13 Oeste 0 -- -- 58
2018-05-14 03:00:00 7 4 Noroeste 9 Nordeste 0 -- -- 58
2018-05-14 02:00:00 8.1 2 Noroeste 12 Noroeste 0 -- -- 54
2018-05-14 01:00:00 8.7 5 Noroeste 10 Noroeste 0 -- -- 50
2018-05-11 20:00:00 -- -- -- -- -- -- -- -- --
2018-05-11 19:00:00 -- -- -- -- -- -- -- -- --
2018-05-11 18:00:00 -- -- -- -- -- -- -- -- --
2018-05-11 17:00:00 -- -- -- -- -- -- -- -- --
2018-05-11 16:00:00 23.1 8 Sudoeste 21 Sudoeste 0 -- -- 44
2018-05-11 15:00:00 20.9 11 Sur 20 Sudoeste 0 -- -- 53
2018-05-11 14:00:00 20.2 4 Sur 19 Sudoeste 0 -- -- 59
2018-05-11 13:00:00 17.1 8 Sur 21 Sur 0 -- -- 73
2018-05-11 12:00:00 15.7 13 Sur 21 Sudeste 0 -- -- 77
2018-05-11 11:00:00 14 15 Sudeste 22 Sur 0 -- -- 80
2018-05-11 10:00:00 13.2 11 Sudeste 20 Sur 0 -- -- 83
2018-05-11 09:00:00 11.9 13 Sudeste 20 Sudeste 0 -- -- 85
2018-05-11 08:00:00 10.4 9 Sudeste 17 Sudeste 0 -- -- 88
2018-05-11 07:00:00 9.7 6 Sudeste 21 Sudeste 0 -- -- 87
2018-05-11 06:00:00 10.3 13 Sudeste 19 Sudeste 0 -- -- 89
2018-05-11 05:00:00 10.1 10 Sudeste 16 Sudeste 0 -- -- 90
2018-05-11 04:00:00 9.8 9 Sur 13 Sudeste 0 -- -- 91
2018-05-11 03:00:00 9.7 6 Sudeste 12 Este 0 -- -- 90
2018-05-11 02:00:00 10.2 2 Nordeste 7 Sudeste 0 -- -- 89
2018-05-11 01:00:00 10.9 2 Este 21 Sur 0 -- -- 86
2018-05-11 00:00:00 11.5 17 Sudeste 27 Sudeste 0 -- -- 83
2018-05-10 23:00:00 12.1 18 Sudeste 31 Sur 0 -- -- 79
2018-05-10 22:00:00 13.3 24 Sur 40 Sur 0 -- -- 73
2018-05-10 21:00:00 18.1 9 Sur 14 Noroeste 0 -- -- 57
2018-05-10 20:00:00 22.4 7 Noroeste 18 Noroeste 0 -- -- 34
2018-05-10 19:00:00 22.9 10 Noroeste 23 Noroeste 0 -- -- 34
2018-05-10 18:00:00 22.9 12 Noroeste 26 Norte 0 -- -- 35
2018-05-10 17:00:00 23.1 14 Noroeste 31 Norte 0 -- -- 38
2018-05-10 16:00:00 23.3 11 Norte 23 Noroeste 0 -- -- 38
2018-05-10 15:00:00 20.9 5 Norte 17 Norte 0 -- -- 45
2018-05-10 14:00:00 20.9 7 Noroeste 17 Norte 0 -- -- 45
2018-05-10 13:00:00 19.7 5 Norte 15 Sur 0 -- -- 50
2018-05-10 12:00:00 20 5 Sur 13 Sudeste 0 -- -- 54
2018-05-10 11:00:00 18.6 3 Norte 9 Norte 0 -- -- 56
2018-05-10 10:00:00 15.9 3 Norte 10 Norte 0 -- -- 64
2018-05-10 09:00:00 13.7 3 Noroeste 10 Sudeste 0 -- -- 71
2018-05-10 08:00:00 11.9 0 Calma 6 Este 0 -- -- 80
2018-05-10 07:00:00 11.4 0 Calma 13 Norte 0 -- -- 80
2018-05-10 06:00:00 11.5 0 Calma 5 Sudeste 0 -- -- 79
2018-05-10 05:00:00 12.5 2 Norte 10 Sudeste 0 -- -- 74
2018-05-10 04:00:00 12.4 2 Sur 4 Norte 0 -- -- 75
2018-05-10 03:00:00 13.6 0 Calma 6 Este 0 -- -- 69
2018-05-10 02:00:00 14.5 3 Noroeste 17 Norte 0 -- -- 66
2018-05-10 01:00:00 15.2 7 Norte 15 Norte 0 -- -- 70
2018-05-10 00:00:00 16.2 3 Noroeste 15 Oeste 0 -- -- 69
2018-05-09 23:00:00 17.1 6 Oeste 12 Oeste 0 -- -- 67
2018-05-09 22:00:00 17.8 4 Oeste 16 Noroeste 0 -- -- 59
2018-05-09 21:00:00 19.4 6 Noroeste 18 Noroeste 0 -- -- 51
2018-05-09 20:00:00 20.9 12 Noroeste 26 Noroeste 0 -- -- 44
2018-05-09 19:00:00 23.6 13 Norte 30 Noroeste 0 -- -- 36
2018-05-09 18:00:00 23.6 18 Noroeste 31 Noroeste 0 -- -- 40
2018-05-09 17:00:00 23.3 14 Noroeste 30 Noroeste 0 -- -- 40
2018-05-09 16:00:00 22.3 12 Norte 33 Noroeste 0 -- -- 42
2018-05-09 15:00:00 22.7 16 Norte 31 Noroeste 0 -- -- 41
2018-05-09 14:00:00 21.7 14 Noroeste 27 Noroeste 0 -- -- 45
2018-05-09 13:00:00 21.9 10 Norte 24 Noroeste 0 -- -- 44
2018-05-09 12:00:00 20.7 10 Norte 21 Noroeste 0 -- -- 48
2018-05-09 11:00:00 19.4 8 Noroeste 19 Norte 0 -- -- 55
2018-05-09 10:00:00 17 3 Noroeste 9 Noroeste 0 -- -- 67
2018-05-09 09:00:00 13.4 5 Norte 8 Noroeste 0 -- -- 82
2018-05-09 08:00:00 9 0 Calma 3 Sur 0 -- -- 97
2018-05-09 07:00:00 7.9 0 Calma 4 Sur 0 -- -- 96
2018-05-09 06:00:00 8.3 0 Calma 3 Norte 0 -- -- 95
2018-05-09 05:00:00 8.5 0 Calma 5 Sudeste 0 -- -- 94
2018-05-09 04:00:00 9.2 2 Noroeste 4 Noroeste 0 -- -- 92
2018-05-09 03:00:00 11.5 0 Calma 17 Sur 0 -- -- 85
2018-05-09 02:00:00 12.3 3 Sudoeste 17 Sur 0 -- -- 81
2018-05-09 01:00:00 12.2 3 Sur 8 Nordeste 0 -- -- 83
2018-05-09 00:00:00 11.3 2 Sudoeste 4 Sudeste 0 -- -- 85
2018-05-08 23:00:00 13.1 0 Calma 9 Este 0 -- -- 77
2018-05-08 22:00:00 14.4 3 Sur 6 Noroeste 0 -- -- 72
2018-05-08 21:00:00 15.9 0 Calma 6 Norte 0 -- -- 69
2018-05-08 20:00:00 16.7 2 Norte 11 Sudoeste 0 -- -- 69
2018-05-08 19:00:00 16.6 5 Noroeste 18 Sur 0 -- -- 67
2018-05-08 18:00:00 16.5 10 Sur 19 Sur 0 -- -- 72
2018-05-08 17:00:00 20.4 9 Noroeste 26 Noroeste 0 -- -- 45
2018-05-08 16:00:00 19.1 16 Norte 32 Norte 0 -- -- 55
2018-05-08 15:00:00 23.8 9 Norte 23 Norte 0 -- -- 39
2018-05-08 14:00:00 22.1 12 Noroeste 30 Norte 0 -- -- 41
2018-05-08 13:00:00 21.3 7 Norte 20 Noroeste 0 -- -- 47
2018-05-08 12:00:00 20.2 11 Norte 19 Noroeste 0 -- -- 50
2018-05-08 11:00:00 18.4 6 Noroeste 13 Noroeste 0 -- -- 59
2018-05-08 10:00:00 16.9 3 Noroeste 6 Norte 0 -- -- 61
2018-05-08 09:00:00 15.1 2 Norte 6 Noroeste 0 -- -- 70
2018-05-08 08:00:00 8.9 3 Este 6 Noroeste 0 -- -- 97
2018-05-08 07:00:00 7.8 0 Calma 4 Sudeste 0 -- -- 92
2018-05-08 06:00:00 8.9 0 Calma 3 Este 0 -- -- 90
2018-05-08 05:00:00 10.4 0 Calma 5 Sudeste 0 -- -- 89
2018-05-08 04:00:00 10.1 0 Calma 7 Sur 0 -- -- 90
2018-05-08 03:00:00 10 0 Calma 3 Sur 0 -- -- 85
2018-05-08 02:00:00 11.8 0 Calma 4 Sur 0 -- -- 83
2018-05-08 01:00:00 12.3 0 Calma 4 Noroeste 0 -- -- 81
2018-05-08 00:00:00 12.2 0 Calma 6 Sur 0 -- -- 80
2018-05-07 23:00:00 12.7 0 Calma 11 Sudeste 0 -- -- 77
2018-05-07 22:00:00 13.7 4 Sudeste 10 Sudeste 0 -- -- 77
2018-05-07 21:00:00 14.7 2 Sudeste 11 Sudeste 0 -- -- 68
2018-05-07 20:00:00 15.7 12 Sudeste 22 Sudeste 0 -- -- 63
2018-05-07 19:00:00 15.9 14 Este 27 Este 0 -- -- 68
2018-05-07 18:00:00 17.4 11 Norte 24 Norte 0 -- -- 61
2018-05-07 17:00:00 21.2 9 Noroeste 18 Noroeste 0 -- -- 44
2018-05-07 16:00:00 20.7 7 Oeste 16 Noroeste 0 -- -- 46
2018-05-07 15:00:00 19.8 6 Norte 18 Este 0 -- -- 55
2018-05-07 14:00:00 21 10 Sudeste 19 Sudeste 0 -- -- 39
2018-05-07 13:00:00 20.4 5 Norte 16 Este 0 -- -- 42
2018-05-07 12:00:00 18.9 6 Noroeste 17 Noroeste 0 -- -- 53
2018-05-07 11:00:00 16.5 7 Norte 13 Norte 0 -- -- 62
2018-05-07 10:00:00 15 5 Norte 9 Noroeste 0 -- -- 69
2018-05-07 09:00:00 12.9 0 Calma 4 Nordeste 0 -- -- 80
2018-05-07 08:00:00 7.7 0 Calma 4 Sur 0 -- -- 97
2018-05-07 07:00:00 6.1 0 Calma 3 Sur 0 -- -- 96
2018-05-07 06:00:00 6.4 0 Calma 2 Sudoeste 0 -- -- 94
2018-05-07 05:00:00 7.2 2 Sur 4 Sudeste 0 -- -- 93
2018-05-07 04:00:00 8.7 0 Calma 5 Sudoeste 0 -- -- 90
2018-05-07 03:00:00 9.5 0 Calma 9 Sudeste 0 -- -- 90
2018-05-07 02:00:00 8.9 4 Sur 6 Sur 0 -- -- 91
2018-05-07 01:00:00 10.5 0 Calma 10 Este 0 -- -- 84
2018-05-07 00:00:00 11.7 5 Sudeste 12 Este 0 -- -- 83
2018-05-06 23:00:00 12.3 5 Sudeste 22 Sudeste 0 -- -- 81
2018-05-06 22:00:00 13.2 12 Sudeste 27 Sudeste 0 -- -- 72
2018-05-06 21:00:00 14 13 Sur 31 Sur 0 -- -- 65
2018-05-06 20:00:00 14.8 27 Sudeste 36 Sudeste 0 -- -- 65
2018-05-06 19:00:00 20.3 4 Noroeste 10 Norte 0 -- -- 45
2018-05-06 18:00:00 17.6 5 Oeste 20 Noroeste 0 -- -- 56
2018-05-06 17:00:00 18.6 6 Sur 23 Sur 0 -- -- 49
2018-05-06 16:00:00 19.3 6 Sur 15 Sudoeste 0 -- -- 48
2018-05-06 15:00:00 19.4 3 Norte 14 Sur 0 -- -- 47
2018-05-06 14:00:00 18.6 6 Sur 15 Este 0 -- -- 50
2018-05-06 13:00:00 18 4 Este 14 Sudeste 0 -- -- 55
2018-05-06 12:00:00 16.1 5 Sur 17 Sudeste 0 -- -- 64
2018-05-06 11:00:00 16.5 5 Sudeste 14 Este 0 -- -- 60
2018-05-06 10:00:00 15.4 2 Este 7 Este 0 -- -- 65
2018-05-06 09:00:00 12.2 3 Este 6 Este 0 -- -- 77
2018-05-06 08:00:00 7.9 0 Calma 5 Norte 0 -- -- 93
2018-05-06 07:00:00 7.5 0 Calma 11 Sudeste 0 -- -- 90
2018-05-06 06:00:00 9 9 Sudeste 16 Sudeste 0 -- -- 87
2018-05-06 05:00:00 9.6 10 Sudeste 22 Sudeste 0 -- -- 84
2018-05-06 04:00:00 9.5 15 Sudeste 24 Sudeste 0 -- -- 85
2018-05-06 03:00:00 9.6 17 Sudeste 26 Sudeste 0 -- -- 87
2018-05-06 02:00:00 9.6 9 Sudeste 18 Sudeste 0 -- -- 88
2018-05-06 01:00:00 10 12 Sudeste 19 Sudeste 0 -- -- 89
2018-05-06 00:00:00 10.4 16 Sur 23 Sur 0 -- -- 89
2018-05-05 23:00:00 10.6 8 Sur 16 Sur 0 -- -- 91
2018-05-05 22:00:00 11.6 10 Sur 21 Sur 1.6 -- -- 89
2018-05-05 21:00:00 12.6 9 Sudeste 27 Este 0.8 -- -- 85
2018-05-05 20:00:00 16.2 11 Sudeste 19 Sur 0 -- -- 55
2018-05-05 19:00:00 17 13 Sur 26 Sur 0 -- -- 55
2018-05-05 18:00:00 19 21 Sur 32 Sur 0 -- -- 50
2018-05-05 17:00:00 18.4 21 Sudeste 37 Este 0 -- -- 54
2018-05-05 16:00:00 17.9 20 Sudeste 32 Sudeste 0 -- -- 49
2018-05-05 15:00:00 20.2 2 Nordeste 20 Oeste 0 -- -- 38
2018-05-05 14:00:00 20.3 7 Noroeste 18 Noroeste 0 -- -- 41
2018-05-05 13:00:00 20.2 5 Noroeste 15 Norte 0 -- -- 40
2018-05-05 12:00:00 18.4 4 Noroeste 13 Norte 0 -- -- 44
2018-05-05 11:00:00 16.8 3 Norte 12 Sudeste 0 -- -- 46
2018-05-05 10:00:00 14.3 3 Sudeste 7 Sudeste 0 -- -- 59
2018-05-05 09:00:00 9.6 0 Calma 2 Este 0 -- -- 74
2018-05-05 08:00:00 8.2 0 Calma 4 Norte 0 -- -- 78
2018-05-05 07:00:00 6.8 0 Calma 6 Sudeste 0 -- -- 81
2018-05-05 06:00:00 9 6 Sudeste 18 Sudeste 0 -- -- 72
2018-05-05 05:00:00 8.4 11 Sudeste 16 Sudeste 0 -- -- 76
2018-05-05 04:00:00 8.2 0 Calma 13 Sudeste 0 -- -- 75
2018-05-05 03:00:00 7.4 5 Sudeste 10 Sudeste 0 -- -- 78
2018-05-05 02:00:00 9.5 0 Calma 13 Sudeste 0 -- -- 68
2018-05-05 01:00:00 10.3 5 Sudeste 10 Sur 0 -- -- 64
2018-05-05 00:00:00 11.7 2 Nordeste 6 Este 0 -- -- 58
2018-05-04 23:00:00 13 4 Norte 9 Norte 0 -- -- 53
2018-05-04 22:00:00 13.5 3 Oeste 15 Noroeste 0 -- -- 53
2018-05-04 21:00:00 16.4 13 Norte 22 Norte 0 -- -- 43
2018-05-04 20:00:00 18.2 4 Noroeste 11 Oeste 0 -- -- 37
2018-05-04 19:00:00 19.7 4 Oeste 17 Sur 0 -- -- 34
2018-05-04 18:00:00 20.4 5 Sudeste 9 Este 0 -- -- 34
2018-05-04 17:00:00 19.9 5 Nordeste 19 Norte 0 -- -- 34
2018-05-04 16:00:00 20.3 6 Sudoeste 17 Norte 0 -- -- 32
2018-05-04 15:00:00 19.1 8 Noroeste 18 Norte 0 -- -- 36
2018-05-04 14:00:00 18.3 5 Nordeste 18 Sudeste 0 -- -- 35
2018-05-04 13:00:00 16.8 4 Norte 21 Norte 0 -- -- 40
2018-05-04 12:00:00 14.3 8 Norte 19 Nordeste 0 -- -- 45
2018-05-04 11:00:00 12.3 7 Nordeste 20 Norte 0 -- -- 50
2018-05-04 10:00:00 8.9 8 Nordeste 18 Este 0 -- -- 61
2018-05-04 09:00:00 6.5 5 Nordeste 13 Nordeste 0 -- -- 70
2018-05-04 08:00:00 2.6 4 Nordeste 13 Nordeste 0 -- -- 85
2018-05-04 07:00:00 2.5 0 Calma 10 Nordeste 0 -- -- 83
2018-05-04 06:00:00 2.6 2 Nordeste 13 Este 0 -- -- 82
2018-05-04 05:00:00 3 2 Nordeste 13 Norte 0 -- -- 80
2018-05-04 04:00:00 3.4 5 Norte 16 Norte 0 -- -- 79
2018-05-04 03:00:00 4.2 9 Norte 17 Norte 0 -- -- 77
2018-05-04 02:00:00 5.3 8 Norte 16 Norte 0 -- -- 73
2018-05-04 01:00:00 6.2 6 Norte 22 Norte 0 -- -- 70
2018-05-04 00:00:00 7.5 11 Norte 27 Nordeste 0 -- -- 65
2018-05-03 23:00:00 8.3 5 Norte 17 Norte 0 -- -- 60
2018-05-03 22:00:00 9.4 8 Norte 19 Nordeste 0 -- -- 54
2018-05-03 21:00:00 11.8 14 Norte 28 Norte 0 -- -- 43
2018-05-03 20:00:00 14.9 17 Norte 32 Norte 0 -- -- 36
2018-05-03 19:00:00 16.4 18 Norte 36 Norte 0 -- -- 35
2018-05-03 18:00:00 17.3 17 Norte 34 Norte 0 -- -- 33
2018-05-03 17:00:00 17.5 16 Norte 34 Norte 0 -- -- 32
2018-05-03 16:00:00 17.5 15 Norte 35 Norte 0 -- -- 35
2018-05-03 15:00:00 15.5 16 Norte 36 Norte 0 -- -- 39
2018-05-03 14:00:00 15.4 18 Norte 36 Norte 0 -- -- 45
2018-05-03 13:00:00 13.2 19 Norte 36 Nordeste 0 -- -- 54
2018-05-03 12:00:00 12.4 16 Norte 33 Norte 0 -- -- 62
2018-05-03 11:00:00 13.1 15 Norte 28 Norte 0 -- -- 61
2018-05-03 10:00:00 11.3 15 Norte 33 Norte 0 -- -- 72
2018-05-03 09:00:00 9.2 18 Norte 31 Norte 0 -- -- 80
2018-05-03 08:00:00 5.6 8 Noroeste 13 Noroeste 0 -- -- 93
2018-05-03 07:00:00 1.9 0 Calma 3 Norte 0 -- -- 90
2018-05-03 06:00:00 3.4 0 Calma 5 Noroeste 0 -- -- 88
2018-05-03 05:00:00 4.3 0 Calma 4 Noroeste 0 -- -- 84
2018-05-03 04:00:00 4.4 0 Calma 8 Noroeste 0 -- -- 80
2018-05-03 03:00:00 4.5 0 Calma 8 Noroeste 0 -- -- 76
2018-05-03 02:00:00 4 3 Noroeste 8 Noroeste 0 -- -- 75
2018-05-03 01:00:00 4.8 0 Calma 3 Noroeste 0 -- -- 72
2018-05-03 00:00:00 6 0 Calma 5 Noroeste 0 -- -- 65
2018-05-02 23:00:00 8.5 4 Noroeste 15 Noroeste 0 -- -- 51
2018-05-02 22:00:00 10.1 8 Noroeste 20 Noroeste 0 -- -- 44
2018-05-02 21:00:00 12 8 Noroeste 21 Noroeste 0 -- -- 43
2018-05-02 20:00:00 13 12 Noroeste 26 Noroeste 0 -- -- 43
2018-05-02 19:00:00 13.8 14 Noroeste 31 Noroeste 0 -- -- 41
2018-05-02 18:00:00 14.2 13 Noroeste 30 Noroeste 0 -- -- 38
2018-05-02 17:00:00 14.6 14 Noroeste 42 Noroeste 0 -- -- 37
2018-05-02 16:00:00 16.1 15 Noroeste 35 Noroeste 0 -- -- 34
2018-05-02 15:00:00 14.6 15 Noroeste 31 Noroeste 0 -- -- 38
2018-05-02 14:00:00 13.7 14 Noroeste 35 Noroeste 0 -- -- 41
2018-05-02 13:00:00 13.2 16 Noroeste 37 Noroeste 0 -- -- 41
2018-05-02 12:00:00 11.9 15 Noroeste 28 Noroeste 0 -- -- 48
2018-05-02 11:00:00 11.5 18 Noroeste 33 Noroeste 0 -- -- 53
2018-05-02 10:00:00 9.1 7 Noroeste 15 Noroeste 0 -- -- 60
2018-05-02 09:00:00 5.8 3 Noroeste 8 Oeste 0 -- -- 64
2018-05-02 08:00:00 2.5 2 Oeste 4 Oeste 0 -- -- 81
2018-05-02 07:00:00 1.1 0 Calma 2 Sudoeste 0 -- -- 89
2018-05-02 06:00:00 0.9 0 Calma 2 Sudoeste 0 -- -- 87
2018-05-02 05:00:00 0.6 0 Calma 3 Sudoeste 0 -- -- 85
2018-05-02 04:00:00 1.6 0 Calma 5 Norte 0 -- -- 82
2018-05-02 03:00:00 2.6 0 Calma 9 Noroeste 0 -- -- 78
2018-05-02 02:00:00 4.1 0 Calma 12 Noroeste 0 -- -- 72
2018-05-02 01:00:00 4.7 4 Noroeste 8 Noroeste 0 -- -- 62
2018-05-02 00:00:00 2.6 0 Calma 2 Sudoeste 0 -- -- 81
2018-05-01 23:00:00 3.9 0 Calma 2 Noroeste 0 -- -- 75
2018-05-01 22:00:00 6.6 0 Calma 11 Noroeste 0 -- -- 60
2018-05-01 21:00:00 9.2 5 Norte 17 Norte 0 -- -- 45
2018-05-01 20:00:00 11.9 8 Norte 24 Norte 0 -- -- 37
2018-05-01 19:00:00 14.2 14 Norte 28 Noroeste 0 -- -- 32
2018-05-01 18:00:00 13.4 12 Norte 25 Noroeste 0 -- -- 36
2018-05-01 17:00:00 13.4 12 Norte 30 Norte 0 -- -- 33
2018-05-01 16:00:00 13.2 12 Norte 25 Noroeste 0 -- -- 37
2018-05-01 15:00:00 12.5 14 Norte 31 Norte 0 -- -- 42
2018-05-01 14:00:00 10.7 14 Norte 29 Norte 0 -- -- 48
2018-05-01 13:00:00 10.5 13 Norte 28 Norte 0 -- -- 50
2018-05-01 12:00:00 9.6 12 Norte 22 Norte 0 -- -- 56
2018-05-01 11:00:00 7.7 12 Norte 21 Nordeste 0 -- -- 66
2018-05-01 10:00:00 6 9 Norte 17 Norte 0 -- -- 75
2018-05-01 09:00:00 3.2 4 Norte 8 Norte 0 -- -- 89
2018-05-01 08:00:00 -0.2 0 Calma 4 Sudeste 0 -- -- 99
2018-05-01 07:00:00 -0.7 0 Calma 3 Nordeste 0 -- -- 99
2018-05-01 06:00:00 -0.9 0 Calma 3 Norte 0 -- -- 99
2018-05-01 05:00:00 -0.6 0 Calma 2 Sudoeste 0 -- -- 98
2018-05-01 04:00:00 -0.5 0 Calma 2 Sudeste 0 -- -- 98
2018-05-01 03:00:00 -0.5 0 Calma 5 Oeste 0 -- -- 98
2018-05-01 02:00:00 -0.2 0 Calma 2 Nordeste 0 -- -- 98
2018-05-01 01:00:00 0.2 0 Calma 3 Sur 0 -- -- 98
2018-05-01 00:00:00 0.3 0 Calma 2 Noroeste 0 -- -- 97
2018-04-30 23:00:00 0.8 0 Calma 6 Norte 0 -- -- 96
2018-04-30 22:00:00 1.6 0 Calma 2 Sur 0.2 -- -- 94
2018-04-30 21:00:00 2.9 2 Sur 8 Sudeste 0.8 -- -- 93
2018-04-30 20:00:00 3 3 Nordeste 30 Noroeste 1.6 -- -- 86
2018-04-30 19:00:00 7.5 7 Sur 23 Sur 0 -- -- 69
2018-04-30 18:00:00 5.4 14 Sudoeste 28 Noroeste 0 -- -- 79
2018-04-30 17:00:00 8.6 17 Noroeste 27 Noroeste 0 -- -- 56
2018-04-30 16:00:00 10.1 11 Oeste 26 Oeste 0 -- -- 49
2018-04-30 15:00:00 8.2 10 Oeste 22 Oeste 0 -- -- 61
2018-04-30 14:00:00 8 9 Oeste 27 Noroeste 0 -- -- 60
2018-04-30 13:00:00 7.9 11 Noroeste 22 Noroeste 0 -- -- 63
2018-04-30 12:00:00 6.7 11 Oeste 23 Oeste 0 -- -- 66
2018-04-30 11:00:00 5.7 10 Oeste 21 Oeste 0 -- -- 73
2018-04-30 10:00:00 5.2 7 Oeste 22 Oeste 0 -- -- 76
2018-04-30 09:00:00 3.3 5 Noroeste 15 Oeste 0 -- -- 89
2018-04-30 08:00:00 1.6 3 Oeste 12 Oeste 0 -- -- 94
2018-04-30 07:00:00 1.7 3 Noroeste 14 Oeste 0 -- -- 93
2018-04-30 06:00:00 1.8 3 Oeste 18 Oeste 0 -- -- 92
2018-04-30 05:00:00 2 2 Oeste 13 Sudoeste 0 -- -- 92
2018-04-30 04:00:00 2.2 0 Calma 16 Oeste 0 -- -- 90
2018-04-30 03:00:00 2.8 7 Oeste 22 Oeste 0 -- -- 89
2018-04-30 02:00:00 3.4 13 Oeste 24 Oeste 0 -- -- 88
2018-04-30 01:00:00 3.8 8 Oeste 19 Oeste 0 -- -- 89
2018-04-30 00:00:00 4.2 10 Oeste 26 Oeste 0 -- -- 86
2018-04-29 23:00:00 4.7 4 Oeste 22 Oeste 0 -- -- 88
2018-04-29 22:00:00 5.3 10 Oeste 19 Oeste 0 -- -- 85
2018-04-29 21:00:00 5.4 6 Noroeste 37 Oeste 0.2 -- -- 86
2018-04-29 20:00:00 5.8 10 Oeste 40 Oeste 0.8 -- -- 82
2018-04-29 19:00:00 8.8 14 Oeste 57 Oeste 0 -- -- 69
2018-04-29 18:00:00 9.6 19 Oeste 49 Oeste 0 -- -- 64
2018-04-29 17:00:00 9.1 15 Oeste 49 Oeste 0.2 -- -- 68
2018-04-29 16:00:00 10.1 22 Oeste 49 Oeste 0 -- -- 55
2018-04-29 15:00:00 8.6 23 Noroeste 54 Oeste 0 -- -- 65
2018-04-29 14:00:00 6.9 21 Noroeste 48 Noroeste 0 -- -- 77
2018-04-29 13:00:00 5.9 23 Noroeste 46 Oeste 0.2 -- -- 84
2018-04-29 12:00:00 4.2 17 Oeste 51 Oeste 0.6 -- -- 92
2018-04-29 11:00:00 3.9 14 Oeste 37 Oeste 0.2 -- -- 93
2018-04-29 10:00:00 3.3 13 Oeste 32 Oeste 0.8 -- -- 95
2018-04-29 09:00:00 3.3 10 Oeste 31 Sur 0.4 -- -- 93
2018-04-29 08:00:00 3.9 8 Oeste 27 Oeste 0 -- -- 93
2018-04-29 07:00:00 3.8 12 Sur 24 Sudoeste 1.2 -- -- 94
2018-04-29 06:00:00 4 5 Sudoeste 26 Oeste 0.8 -- -- 91
2018-04-29 05:00:00 6.2 9 Oeste 31 Sudoeste 0 -- -- 70
2018-04-29 04:00:00 6.5 4 Sur 11 Sudoeste 0 -- -- 68
2018-04-29 03:00:00 5.4 0 Calma 8 Sudoeste 0 -- -- 77
2018-04-29 02:00:00 5.3 2 Noroeste 9 Oeste 0 -- -- 76
2018-04-29 01:00:00 6.9 0 Calma 3 Noroeste 0 -- -- 70
2018-04-29 00:00:00 7.9 0 Calma 9 Noroeste 0 -- -- 68
2018-04-28 23:00:00 8.5 4 Noroeste 17 Noroeste 0 -- -- 62
2018-04-28 22:00:00 9.8 8 Noroeste 23 Oeste 0 -- -- 52
2018-04-28 21:00:00 12.2 12 Oeste 25 Oeste 0 -- -- 44
2018-04-28 20:00:00 14.2 15 Oeste 33 Oeste 0 -- -- 47
2018-04-28 19:00:00 15.7 13 Oeste 36 Sudoeste 0 -- -- 51
2018-04-28 18:00:00 15.6 19 Sudoeste 41 Sudoeste 0 -- -- 50
2018-04-28 17:00:00 16 17 Sudoeste 35 Sudoeste 0 -- -- 54
2018-04-28 16:00:00 16.9 15 Sudoeste 37 Oeste 0 -- -- 51
2018-04-28 15:00:00 14.8 10 Sudoeste 29 Sudoeste 0 -- -- 55
2018-04-28 14:00:00 14.1 12 Sudoeste 27 Sudoeste 0 -- -- 62
2018-04-28 13:00:00 15 15 Sudoeste 30 Sudoeste 0 -- -- 60
2018-04-28 12:00:00 12.9 15 Sudoeste 30 Sur 0 -- -- 67
2018-04-28 11:00:00 12.5 14 Sur 25 Sur 0 -- -- 73
2018-04-28 10:00:00 10.2 10 Sur 16 Sur 0 -- -- 71
2018-04-28 09:00:00 9.8 5 Sur 13 Sur 0 -- -- 70
2018-04-28 08:00:00 8.7 8 Sur 13 Sur 0 -- -- 74
2018-04-28 07:00:00 7.6 6 Sur 9 Sur 0 -- -- 76
2018-04-28 06:00:00 8.9 7 Sur 12 Sur 0 -- -- 75
2018-04-28 05:00:00 8.4 5 Sur 7 Sur 0 -- -- 81
2018-04-28 04:00:00 7.9 4 Sur 7 Sur 0 -- -- 80
2018-04-28 03:00:00 7.9 3 Sudeste 5 Este 0 -- -- 81
2018-04-28 02:00:00 8.2 2 Sur 9 Noroeste 0 -- -- 75
2018-04-28 01:00:00 9.4 2 Oeste 6 Oeste 0 -- -- 70
2018-04-28 00:00:00 11.3 4 Sudoeste 14 Oeste 0 -- -- 60